Time;durP1;ratioP1;P1;durP2;ratioP2;P2;SDS_P1;SDS_P2;PMS_P1;PMS_P2;Temp;Humidity;BMP_temperature;BMP_pressure;BME280_temperature;BME280_humidity;BME280_pressure;Samples;Min_cycle;Max_cycle;Signal;HPM_P1;HPM_P2
2022/02/22 00:01:38;;;;;;;2.53;0.73;;;4.50;99.90;;;;;;6326512;22;20170;-94
2022/02/22 00:04:09;;;;;;;2.90;1.13;;;4.50;99.90;;;;;;6326542;22;20671;-93
2022/02/22 00:06:44;;;;;;;3.73;1.43;;;4.50;99.90;;;;;;6325356;22;20181;-94
2022/02/22 00:09:16;;;;;;;3.43;1.43;;;4.50;99.90;;;;;;6328058;22;20181;-93
2022/02/22 00:11:48;;;;;;;3.63;1.43;;;4.40;99.90;;;;;;6331245;22;20162;-93
2022/02/22 00:14:20;;;;;;;2.37;1.17;;;4.40;99.90;;;;;;6330004;22;20234;-91
2022/02/22 00:16:55;;;;;;;1.50;0.77;;;4.40;99.90;;;;;;6330772;22;20173;-95
2022/02/22 00:19:27;;;;;;;3.00;1.00;;;4.30;99.90;;;;;;6328249;22;20162;-95
2022/02/22 00:22:01;;;;;;;1.20;0.97;;;4.30;99.90;;;;;;6301925;22;20163;-94
2022/02/22 00:24:36;;;;;;;1.73;0.90;;;4.30;99.90;;;;;;6328493;22;20231;-94
2022/02/22 00:27:08;;;;;;;2.30;1.33;;;4.20;99.90;;;;;;6329274;22;20216;-94
2022/02/22 00:32:16;;;;;;;3.67;1.37;;;4.10;99.90;;;;;;6329169;22;20201;-94
2022/02/22 00:34:51;;;;;;;1.60;1.00;;;4.10;99.90;;;;;;6325406;22;20224;-94
2022/02/22 00:37:25;;;;;;;4.13;0.97;;;4.10;99.90;;;;;;6325586;22;20179;-94
2022/02/22 00:39:56;;;;;;;4.03;1.00;;;4.00;99.90;;;;;;6321952;22;20169;-94
2022/02/22 00:42:27;;;;;;;1.67;1.10;;;3.90;99.90;;;;;;6329200;22;20174;-94
2022/02/22 00:44:58;;;;;;;3.50;1.13;;;3.90;99.90;;;;;;6328295;22;20174;-93
2022/02/22 00:47:29;;;;;;;3.77;1.07;;;3.90;99.90;;;;;;6329270;22;20167;-93
2022/02/22 00:50:00;;;;;;;2.97;1.33;;;3.90;99.90;;;;;;6330632;22;20194;-93
2022/02/22 00:52:35;;;;;;;4.40;1.00;;;3.80;99.90;;;;;;6336232;22;20189;-93
2022/02/22 00:55:07;;;;;;;4.03;1.73;;;3.80;99.90;;;;;;6327164;22;20181;-95
2022/02/22 00:57:41;;;;;;;3.30;1.40;;;3.70;99.90;;;;;;6329567;22;20236;-95
2022/02/22 01:03:00;;;;;;;2.50;1.30;;;3.60;99.90;;;;;;6331710;22;20216;-93
2022/02/22 01:05:31;;;;;;;3.87;1.20;;;3.60;99.90;;;;;;6330285;22;20178;-93
2022/02/22 01:08:08;;;;;;;3.43;1.50;;;3.60;99.90;;;;;;6332606;22;20230;-93
2022/02/22 01:10:44;;;;;;;3.23;1.47;;;3.50;99.90;;;;;;6329205;22;20201;-93
2022/02/22 01:13:16;;;;;;;3.40;1.20;;;3.50;99.90;;;;;;6333843;22;20159;-95
2022/02/22 01:15:48;;;;;;;6.20;1.50;;;3.50;99.90;;;;;;6336413;22;20173;-95
2022/02/22 01:18:18;;;;;;;5.30;1.60;;;3.40;99.90;;;;;;6336008;22;20202;-94
2022/02/22 01:20:50;;;;;;;7.17;1.67;;;3.40;99.90;;;;;;6327233;22;20244;-94
2022/02/22 01:23:24;;;;;;;2.93;1.10;;;3.40;99.90;;;;;;6329657;22;20272;-93
2022/02/22 01:25:56;;;;;;;7.53;1.23;;;3.40;99.90;;;;;;6330191;22;20167;-93
2022/02/22 01:28:27;;;;;;;2.47;1.10;;;3.40;99.90;;;;;;6326419;22;20175;-94
2022/02/22 01:31:01;;;;;;;4.37;1.30;;;3.40;99.90;;;;;;6312541;22;21344;-94
2022/02/22 01:33:32;;;;;;;5.77;1.43;;;3.40;99.90;;;;;;6328410;22;20196;-94
2022/02/22 01:36:07;;;;;;;2.07;1.40;;;3.30;99.90;;;;;;6330027;22;20204;-94
2022/02/22 01:38:41;;;;;;;5.03;1.20;;;3.30;99.90;;;;;;6328768;22;20239;-95
2022/02/22 01:41:12;;;;;;;2.87;1.50;;;3.20;99.90;;;;;;6327348;22;20174;-94
2022/02/22 01:43:44;;;;;;;4.50;1.60;;;3.20;99.90;;;;;;6326679;22;20512;-94
2022/02/22 01:46:16;;;;;;;7.10;1.50;;;3.20;99.90;;;;;;6325979;22;20174;-94
2022/02/22 01:48:48;;;;;;;4.27;1.30;;;3.10;99.90;;;;;;6327150;22;20202;-94
2022/02/22 01:51:20;;;;;;;4.97;1.20;;;3.10;99.90;;;;;;6301350;22;20198;-94
2022/02/22 01:53:54;;;;;;;6.03;1.63;;;3.10;99.90;;;;;;6327276;22;20170;-94
2022/02/22 01:56:26;;;;;;;4.20;1.50;;;3.00;99.90;;;;;;6323307;22;20170;-94
2022/02/22 01:58:58;;;;;;;7.83;1.30;;;3.00;99.90;;;;;;6327656;22;20179;-93
2022/02/22 02:01:29;;;;;;;3.17;1.40;;;3.00;99.90;;;;;;6327927;22;20181;-94
2022/02/22 02:04:05;;;;;;;6.67;1.60;;;3.00;99.90;;;;;;6325238;22;20220;-93
2022/02/22 02:06:39;;;;;;;3.57;1.23;;;2.90;99.90;;;;;;6327954;22;20169;-94
2022/02/22 02:09:12;;;;;;;3.00;1.43;;;2.90;99.90;;;;;;6314360;22;20182;-93
2022/02/22 02:11:49;;;;;;;3.23;1.30;;;2.90;99.90;;;;;;6326237;22;20198;-93
2022/02/22 02:14:20;;;;;;;4.50;1.43;;;2.90;99.90;;;;;;6325398;22;20162;-93
2022/02/22 02:16:53;;;;;;;3.43;1.30;;;2.80;99.90;;;;;;6318235;22;20233;-93
2022/02/22 02:19:25;;;;;;;4.73;1.17;;;2.90;99.90;;;;;;6285124;22;20194;-94
2022/02/22 02:22:01;;;;;;;3.67;1.23;;;2.80;99.90;;;;;;6297031;22;20310;-94
2022/02/22 02:24:32;;;;;;;3.30;1.00;;;2.80;99.90;;;;;;6296929;22;20167;-93
2022/02/22 02:27:04;;;;;;;3.93;1.43;;;2.80;99.90;;;;;;6295847;22;20234;-93
2022/02/22 02:29:34;;;;;;;7.30;1.47;;;2.70;99.90;;;;;;6292119;22;20247;-94
2022/02/22 02:32:06;;;;;;;3.17;1.63;;;2.70;99.90;;;;;;6283036;22;20198;-93
2022/02/22 02:34:37;;;;;;;2.83;1.47;;;2.80;99.90;;;;;;6283918;22;20628;-93
2022/02/22 02:37:11;;;;;;;4.20;1.73;;;2.70;99.90;;;;;;6283351;22;20175;-92
2022/02/22 02:39:42;;;;;;;6.77;1.90;;;2.70;99.90;;;;;;6282770;22;20174;-92
2022/02/22 02:42:16;;;;;;;5.17;1.20;;;2.70;99.90;;;;;;6283390;22;20541;-93
2022/02/22 02:44:49;;;;;;;3.57;1.73;;;2.70;99.90;;;;;;6281882;22;20519;-95
2022/02/22 02:47:20;;;;;;;4.57;1.40;;;2.60;99.90;;;;;;6280665;22;20221;-94
2022/02/22 02:49:51;;;;;;;2.67;1.70;;;2.70;99.90;;;;;;6282742;22;20167;-93
2022/02/22 02:52:25;;;;;;;4.13;1.70;;;2.60;99.90;;;;;;6282711;22;20669;-92
2022/02/22 02:54:57;;;;;;;4.93;2.03;;;2.60;99.90;;;;;;6282133;22;20177;-93
2022/02/22 02:57:30;;;;;;;4.83;1.70;;;2.50;99.90;;;;;;6284346;22;20214;-93
2022/02/22 03:00:02;;;;;;;6.20;1.50;;;2.60;99.90;;;;;;6296917;22;20178;-94
2022/02/22 03:02:34;;;;;;;5.13;1.50;;;2.60;99.90;;;;;;6285998;22;20182;-92
2022/02/22 03:05:06;;;;;;;2.90;1.27;;;2.70;99.90;;;;;;6293134;22;20205;-92
2022/02/22 03:07:42;;;;;;;3.30;1.37;;;2.80;99.90;;;;;;6300854;22;20214;-93
2022/02/22 03:10:13;;;;;;;4.20;1.47;;;2.80;99.90;;;;;;6301924;22;20158;-94
2022/02/22 03:12:45;;;;;;;4.77;1.93;;;2.80;99.90;;;;;;6300203;22;20194;-93
2022/02/22 03:15:16;;;;;;;3.77;1.63;;;2.80;99.90;;;;;;6298609;22;20167;-96
2022/02/22 03:17:47;;;;;;;3.93;1.70;;;2.80;99.90;;;;;;6286390;22;20182;-92
2022/02/22 03:20:19;;;;;;;6.40;2.00;;;2.80;99.90;;;;;;6285939;22;20183;-93
2022/02/22 03:22:53;;;;;;;5.80;2.17;;;2.80;99.90;;;;;;6295959;22;20182;-93
2022/02/22 03:25:25;;;;;;;5.20;1.80;;;2.90;99.90;;;;;;6299281;22;20163;-93
2022/02/22 03:27:57;;;;;;;4.47;1.50;;;2.90;99.90;;;;;;6298303;22;20184;-93
2022/02/22 03:31:14;;;;;;;5.90;2.00;;;2.80;99.90;;;;;;6304506;22;20155;-92
2022/02/22 03:33:50;;;;;;;5.60;2.00;;;2.70;99.90;;;;;;6304477;22;20190;-94
2022/02/22 03:36:21;;;;;;;3.50;2.07;;;2.80;99.90;;;;;;6295564;22;20174;-94
2022/02/22 03:38:54;;;;;;;4.57;1.80;;;2.80;99.90;;;;;;6297327;22;20179;-94
2022/02/22 03:41:27;;;;;;;3.90;1.83;;;2.80;99.90;;;;;;6296705;22;20258;-94
2022/02/22 03:43:59;;;;;;;3.77;1.70;;;2.80;99.90;;;;;;6296182;22;20167;-94
2022/02/22 03:46:31;;;;;;;2.33;1.73;;;2.80;99.90;;;;;;6295852;22;20231;-93
2022/02/22 03:49:02;;;;;;;6.40;2.17;;;2.70;99.90;;;;;;6293966;22;20191;-93
2022/02/22 03:51:34;;;;;;;3.13;1.57;;;2.70;99.90;;;;;;6268617;22;20223;-94
2022/02/22 03:54:07;;;;;;;5.20;1.90;;;2.70;99.90;;;;;;6294676;22;20159;-94
2022/02/22 03:56:39;;;;;;;4.00;2.13;;;2.60;99.90;;;;;;6292310;22;20178;-93
2022/02/22 03:59:11;;;;;;;7.73;1.93;;;2.60;99.90;;;;;;6295727;22;20163;-94
2022/02/22 04:01:45;;;;;;;3.87;1.67;;;2.60;99.90;;;;;;6295291;22;20182;-94
2022/02/22 04:04:20;;;;;;;7.93;1.80;;;2.70;99.90;;;;;;6296791;22;20182;-94
2022/02/22 04:06:52;;;;;;;4.43;1.30;;;2.70;99.90;;;;;;6295262;22;20167;-93
2022/02/22 04:09:26;;;;;;;5.77;1.93;;;2.70;99.90;;;;;;6296138;22;20210;-92
2022/02/22 04:11:58;;;;;;;5.07;1.60;;;2.60;99.90;;;;;;6293655;22;20206;-94
2022/02/22 04:14:31;;;;;;;5.83;1.67;;;2.50;99.90;;;;;;6293282;22;20257;-93
2022/02/22 04:17:02;;;;;;;3.37;1.60;;;2.50;99.90;;;;;;6295354;22;20533;-93
2022/02/22 04:19:33;;;;;;;3.63;1.67;;;2.50;99.90;;;;;;6300330;22;20187;-93
2022/02/22 04:22:06;;;;;;;6.53;1.53;;;2.50;99.90;;;;;;6298864;22;20171;-94
2022/02/22 04:24:41;;;;;;;3.40;1.30;;;2.50;99.90;;;;;;6298811;22;20239;-93
2022/02/22 04:27:14;;;;;;;5.80;1.77;;;2.40;99.90;;;;;;6297404;22;20218;-95
2022/02/22 04:29:46;;;;;;;2.80;1.37;;;2.40;99.90;;;;;;6300502;22;20170;-94
2022/02/22 04:32:17;;;;;;;2.50;1.47;;;2.40;99.90;;;;;;6322427;22;20206;-94
2022/02/22 04:34:54;;;;;;;7.77;1.80;;;2.40;99.90;;;;;;6301774;22;20174;-94
2022/02/22 04:37:25;;;;;;;3.17;1.27;;;2.30;99.90;;;;;;6323687;22;20175;-94
2022/02/22 04:39:59;;;;;;;5.10;1.50;;;2.40;99.90;;;;;;6326414;22;20625;-93
2022/02/22 04:42:33;;;;;;;6.53;1.77;;;2.40;99.90;;;;;;6327043;22;20167;-94
2022/02/22 04:45:06;;;;;;;2.93;1.93;;;2.30;99.90;;;;;;6300707;22;20177;-94
2022/02/22 04:47:39;;;;;;;3.67;1.40;;;2.30;99.90;;;;;;6325673;22;20178;-93
2022/02/22 04:50:12;;;;;;;4.30;1.70;;;2.30;99.90;;;;;;6326194;22;20174;-94
2022/02/22 04:52:54;;;;;;;2.97;1.10;;;2.30;99.90;;;;;;6326829;22;20253;-93
2022/02/22 04:55:29;;;;;;;3.13;1.27;;;2.30;99.90;;;;;;6326394;22;20194;-93
2022/02/22 04:58:00;;;;;;;6.03;1.63;;;2.30;99.90;;;;;;6326960;22;20201;-93
2022/02/22 05:00:32;;;;;;;2.60;1.40;;;2.30;99.90;;;;;;6329588;22;20305;-94
2022/02/22 05:03:06;;;;;;;2.37;1.27;;;2.40;99.90;;;;;;6330041;22;20167;-92
2022/02/22 05:05:38;;;;;;;3.50;1.47;;;2.50;99.90;;;;;;6332289;22;20208;-93
2022/02/22 05:08:09;;;;;;;4.07;1.50;;;2.40;99.90;;;;;;6327491;22;20163;-92
2022/02/22 05:10:43;;;;;;;2.23;1.43;;;2.40;99.90;;;;;;6326064;22;20193;-95
2022/02/22 05:13:15;;;;;;;6.27;1.47;;;2.60;99.90;;;;;;6300449;22;20259;-93
2022/02/22 05:15:47;;;;;;;2.50;1.30;;;2.50;99.90;;;;;;6323837;22;20178;-95
2022/02/22 05:18:18;;;;;;;7.53;1.77;;;2.50;99.90;;;;;;6322982;22;20170;-93
2022/02/22 05:20:58;;;;;;;6.03;1.57;;;2.40;99.90;;;;;;6331563;22;20167;-93
2022/02/22 05:23:35;;;;;;;2.53;1.53;;;2.40;99.90;;;;;;6331907;22;20166;-94
2022/02/22 05:26:11;;;;;;;3.47;1.50;;;2.40;99.90;;;;;;6326877;22;20230;-93
2022/02/22 05:28:44;;;;;;;2.63;1.20;;;2.40;99.90;;;;;;6321180;22;20184;-94
2022/02/22 05:31:17;;;;;;;1.83;1.50;;;2.30;99.90;;;;;;6314432;22;20259;-93
2022/02/22 05:33:48;;;;;;;3.43;1.60;;;2.10;99.90;;;;;;6313728;22;20226;-95
2022/02/22 05:36:23;;;;;;;3.37;1.40;;;2.10;99.90;;;;;;6334758;22;20169;-94
2022/02/22 05:38:54;;;;;;;3.87;1.50;;;2.00;99.90;;;;;;6335598;22;20189;-93
2022/02/22 05:41:28;;;;;;;4.57;1.80;;;1.80;99.90;;;;;;6336350;22;20170;-91
2022/02/22 05:43:59;;;;;;;4.40;1.50;;;1.70;99.90;;;;;;6336668;22;20155;-94
2022/02/22 05:46:31;;;;;;;6.13;1.90;;;1.60;99.90;;;;;;6310697;22;20221;-94
2022/02/22 05:49:03;;;;;;;3.73;1.40;;;1.70;99.90;;;;;;6335503;22;20158;-95
2022/02/22 05:51:34;;;;;;;3.07;1.33;;;1.60;99.90;;;;;;6336077;22;20158;-93
2022/02/22 05:54:06;;;;;;;4.17;1.90;;;1.60;99.90;;;;;;6309664;22;20238;-92
2022/02/22 05:56:38;;;;;;;5.67;1.70;;;1.40;99.90;;;;;;6331832;22;20169;-94
2022/02/22 05:59:09;;;;;;;2.97;1.70;;;1.30;99.90;;;;;;6333781;22;20222;-92
2022/02/22 06:01:42;;;;;;;2.77;1.63;;;1.30;99.90;;;;;;6335829;22;20170;-92
2022/02/22 06:04:18;;;;;;;3.13;1.50;;;1.20;99.90;;;;;;6328397;22;20491;-91
2022/02/22 06:06:50;;;;;;;3.33;1.70;;;1.20;99.90;;;;;;6324624;22;20177;-94
2022/02/22 06:09:21;;;;;;;4.23;1.60;;;1.20;99.90;;;;;;6320250;22;20197;-93
2022/02/22 06:11:54;;;;;;;4.30;1.83;;;1.10;99.90;;;;;;6293265;22;20163;-93
2022/02/22 06:14:25;;;;;;;3.97;1.50;;;1.20;99.90;;;;;;6315820;22;20217;-94
2022/02/22 06:16:56;;;;;;;4.43;2.00;;;1.10;99.90;;;;;;6321867;22;20306;-93
2022/02/22 06:19:29;;;;;;;3.20;2.13;;;1.10;99.90;;;;;;6319481;22;20181;-93
2022/02/22 06:22:01;;;;;;;4.27;1.73;;;1.00;99.90;;;;;;6263480;22;20215;-94
2022/02/22 06:24:33;;;;;;;5.70;1.87;;;1.00;99.90;;;;;;6324367;22;20171;-94
2022/02/22 06:27:08;;;;;;;4.37;1.77;;;1.10;99.90;;;;;;6326704;22;20220;-93
2022/02/22 06:29:40;;;;;;;2.87;2.00;;;1.10;99.90;;;;;;6327436;22;20589;-93
2022/02/22 06:32:12;;;;;;;4.50;1.77;;;1.00;99.90;;;;;;6292684;22;20186;-93
2022/02/22 06:34:43;;;;;;;6.50;1.73;;;1.00;99.90;;;;;;6317551;22;20211;-93
2022/02/22 06:37:15;;;;;;;5.17;1.67;;;0.90;99.90;;;;;;6320811;22;20212;-94
2022/02/22 06:39:46;;;;;;;3.90;1.90;;;0.80;99.90;;;;;;6326253;22;20189;-94
2022/02/22 06:42:19;;;;;;;4.50;1.97;;;0.90;99.90;;;;;;6325780;22;20232;-93
2022/02/22 06:44:51;;;;;;;4.73;1.90;;;0.90;99.90;;;;;;6314246;22;20170;-92
2022/02/22 06:47:23;;;;;;;4.83;1.70;;;0.80;99.90;;;;;;6322373;22;20166;-93
2022/02/22 06:49:54;;;;;;;3.90;1.80;;;0.80;99.90;;;;;;6317261;22;20190;-93
2022/02/22 06:52:28;;;;;;;5.07;2.30;;;0.80;99.90;;;;;;6324646;22;20168;-93
2022/02/22 06:54:59;;;;;;;6.47;2.10;;;0.70;99.90;;;;;;6333631;22;20201;-94
2022/02/22 06:57:35;;;;;;;6.50;2.00;;;0.60;99.90;;;;;;6301410;22;20541;-94
2022/02/22 07:00:11;;;;;;;5.13;1.93;;;0.50;99.90;;;;;;6316218;22;20192;-93
2022/02/22 07:02:44;;;;;;;4.53;2.00;;;0.50;99.90;;;;;;6318097;22;20681;-93
2022/02/22 07:05:18;;;;;;;5.67;1.77;;;0.40;99.90;;;;;;6332733;22;20182;-92
2022/02/22 07:07:57;;;;;;;8.37;1.93;;;0.40;99.90;;;;;;6332559;22;20167;-93
2022/02/22 07:10:30;;;;;;;3.47;2.00;;;0.40;99.90;;;;;;6326306;22;20177;-94
2022/02/22 07:13:03;;;;;;;3.40;1.50;;;0.40;99.90;;;;;;6324720;22;20167;-94
2022/02/22 07:15:41;;;;;;;4.10;1.90;;;0.40;99.90;;;;;;6325493;22;20172;-94
2022/02/22 07:18:13;;;;;;;4.73;2.00;;;0.40;99.90;;;;;;6327949;22;20176;-93
2022/02/22 07:20:48;;;;;;;9.63;2.40;;;0.40;99.90;;;;;;6328333;22;20157;-93
2022/02/22 07:23:20;;;;;;;5.23;2.00;;;0.40;99.90;;;;;;6327849;22;20184;-93
2022/02/22 07:25:54;;;;;;;7.37;1.93;;;0.40;99.90;;;;;;6312320;22;20531;-94
2022/02/22 07:28:27;;;;;;;5.30;1.93;;;0.40;99.90;;;;;;6264711;22;20175;-93
2022/02/22 07:31:00;;;;;;;7.07;2.47;;;0.40;99.90;;;;;;6296494;22;20199;-93
2022/02/22 07:33:32;;;;;;;6.33;1.67;;;0.40;99.90;;;;;;6297549;22;20186;-92
2022/02/22 07:36:05;;;;;;;7.13;2.10;;;0.40;99.90;;;;;;6296228;22;20173;-93
2022/02/22 07:38:37;;;;;;;5.93;1.80;;;0.30;99.90;;;;;;6269275;22;20181;-94
2022/02/22 07:41:22;;;;;;;6.53;2.07;;;0.30;99.90;;;;;;6291393;22;20166;-92
2022/02/22 07:43:54;;;;;;;6.23;1.73;;;0.30;99.90;;;;;;6293662;22;20200;-95
2022/02/22 07:46:27;;;;;;;5.90;1.70;;;0.30;99.90;;;;;;6292677;22;20273;-93
2022/02/22 07:48:59;;;;;;;2.73;2.20;;;0.30;99.90;;;;;;6291324;22;20171;-94
2022/02/22 07:51:31;;;;;;;4.87;1.43;;;0.30;99.90;;;;;;6291306;22;20223;-94
2022/02/22 07:54:02;;;;;;;5.70;3.30;;;0.40;99.90;;;;;;6293150;22;20198;-95
2022/02/22 07:56:35;;;;;;;4.43;1.60;;;0.30;99.90;;;;;;6294722;22;20251;-92
2022/02/22 07:59:06;;;;;;;6.80;1.77;;;0.40;99.90;;;;;;6297080;22;20174;-93
2022/02/22 08:01:40;;;;;;;4.67;1.60;;;0.30;99.90;;;;;;6300797;22;20178;-92
2022/02/22 08:04:11;;;;;;;4.93;1.63;;;0.40;99.90;;;;;;6303833;22;20169;-93
2022/02/22 08:06:43;;;;;;;2.10;1.40;;;0.30;99.90;;;;;;6302645;22;20186;-93
2022/02/22 08:09:16;;;;;;;2.53;1.60;;;0.30;99.90;;;;;;6303157;22;20186;-93
2022/02/22 08:11:48;;;;;;;2.30;1.50;;;0.30;99.90;;;;;;6274496;22;20170;-93
2022/02/22 08:14:20;;;;;;;3.57;1.83;;;0.30;99.90;;;;;;6295285;22;20203;-93
2022/02/22 08:16:57;;;;;;;6.03;1.40;;;0.30;99.90;;;;;;6295516;22;20178;-92
2022/02/22 08:19:29;;;;;;;6.43;1.70;;;0.40;99.90;;;;;;6295760;22;20194;-92
2022/02/22 08:22:03;;;;;;;2.53;1.50;;;0.30;99.90;;;;;;6295778;22;20177;-93
2022/02/22 08:24:35;;;;;;;2.13;1.37;;;0.30;99.90;;;;;;6294120;22;20221;-94
2022/02/22 08:27:07;;;;;;;3.90;1.50;;;0.30;99.90;;;;;;6293454;22;20206;-93
2022/02/22 08:29:38;;;;;;;2.57;1.73;;;0.30;99.90;;;;;;6266218;22;20182;-94
2022/02/22 08:32:12;;;;;;;4.67;1.60;;;0.30;99.90;;;;;;6299089;22;20171;-95
2022/02/22 08:34:43;;;;;;;3.63;1.70;;;0.30;99.90;;;;;;6297293;22;20280;-93
2022/02/22 08:37:19;;;;;;;5.20;1.73;;;0.20;99.90;;;;;;6297147;22;20240;-93
2022/02/22 08:39:50;;;;;;;5.37;1.73;;;0.10;99.90;;;;;;6296609;22;20663;-93
2022/02/22 08:42:22;;;;;;;5.03;1.40;;;0.10;99.90;;;;;;6272561;22;20177;-93
2022/02/22 08:45:16;;;;;;;4.00;1.37;;;0.10;99.90;;;;;;6275072;22;20175;-94
2022/02/22 08:47:51;;;;;;;4.17;1.83;;;0.00;99.90;;;;;;6295017;22;20165;-93
2022/02/22 08:50:23;;;;;;;2.63;1.80;;;0.00;99.90;;;;;;6297844;22;20163;-94
2022/02/22 08:52:55;;;;;;;3.00;1.20;;;0.00;99.90;;;;;;6295662;22;20181;-92
2022/02/22 08:55:28;;;;;;;4.87;1.60;;;0.00;99.90;;;;;;6294903;22;20281;-93
2022/02/22 08:58:00;;;;;;;2.33;1.23;;;0.00;99.90;;;;;;6295785;22;20182;-93
2022/02/22 09:00:33;;;;;;;9.67;1.80;;;0.00;99.90;;;;;;6298604;22;20169;-93
2022/02/22 09:03:07;;;;;;;6.33;2.00;;;0.10;99.90;;;;;;6297454;22;20209;-92
2022/02/22 09:05:38;;;;;;;5.87;1.50;;;0.10;99.90;;;;;;6296771;22;20178;-94
2022/02/22 09:08:10;;;;;;;6.77;1.73;;;0.20;99.90;;;;;;6291150;22;20170;-93
2022/02/22 09:10:45;;;;;;;3.43;1.50;;;0.10;99.90;;;;;;6296148;22;20189;-93
2022/02/22 09:13:16;;;;;;;3.40;1.30;;;0.10;99.90;;;;;;6298883;22;20227;-93
2022/02/22 09:15:51;;;;;;;4.87;1.70;;;0.10;99.90;;;;;;6296254;22;20202;-94
2022/02/22 09:18:24;;;;;;;2.07;1.53;;;0.10;99.90;;;;;;6297078;22;20182;-92
2022/02/22 09:20:56;;;;;;;3.10;1.53;;;0.10;99.90;;;;;;6296877;22;20198;-94
2022/02/22 09:23:28;;;;;;;1.93;1.30;;;0.10;99.90;;;;;;6298609;22;20280;-93
2022/02/22 09:26:01;;;;;;;2.17;1.20;;;0.20;99.90;;;;;;6297528;22;20228;-93
2022/02/22 09:28:32;;;;;;;1.93;1.23;;;0.20;99.90;;;;;;6297022;22;20162;-92
2022/02/22 09:31:04;;;;;;;4.40;1.63;;;0.20;99.90;;;;;;6305412;22;20167;-93
2022/02/22 09:33:37;;;;;;;8.13;1.50;;;0.20;99.90;;;;;;6279654;22;20310;-93
2022/02/22 09:36:15;;;;;;;3.53;1.50;;;0.20;99.90;;;;;;6287101;22;20192;-88
2022/02/22 09:41:23;;;;;;;2.30;1.47;;;0.20;99.90;;;;;;6336295;22;20253;-93
2022/02/22 09:43:56;;;;;;;3.47;1.60;;;0.30;99.90;;;;;;6336744;22;20273;-92
2022/02/22 09:46:30;;;;;;;4.67;1.77;;;0.20;99.90;;;;;;6330041;22;21384;-86
2022/02/22 09:49:05;;;;;;;4.43;2.00;;;0.20;99.90;;;;;;6303985;22;20217;-93
2022/02/22 09:51:36;;;;;;;5.20;1.30;;;0.20;99.90;;;;;;6302272;22;20173;-94
2022/02/22 09:54:08;;;;;;;4.57;1.67;;;0.20;99.90;;;;;;6309050;22;20289;-93
2022/02/22 09:56:45;;;;;;;5.10;2.10;;;0.20;99.90;;;;;;6362906;22;20217;-92
2022/02/22 09:59:21;;;;;;;3.40;1.50;;;0.10;99.90;;;;;;6360491;22;20176;-94
2022/02/22 10:01:54;;;;;;;6.93;1.87;;;0.20;99.90;;;;;;6358785;22;20179;-92
2022/02/22 10:04:28;;;;;;;5.40;1.67;;;0.20;99.90;;;;;;6358887;22;20197;-93
2022/02/22 10:07:07;;;;;;;2.93;1.80;;;0.20;99.90;;;;;;6359928;22;20176;-93
2022/02/22 10:09:59;;;;;;;4.93;1.60;;;0.20;99.90;;;;;;6361717;22;20169;-93
2022/02/22 10:12:34;;;;;;;4.03;1.60;;;0.20;99.90;;;;;;6360224;22;20173;-93
2022/02/22 10:15:10;;;;;;;2.90;1.53;;;0.30;99.90;;;;;;6358107;22;20203;-93
2022/02/22 10:17:43;;;;;;;3.30;1.40;;;0.30;99.90;;;;;;6357980;22;20270;-93
2022/02/22 10:20:16;;;;;;;3.17;1.60;;;0.20;99.90;;;;;;6351634;22;20607;-94
2022/02/22 10:22:52;;;;;;;4.03;1.67;;;0.20;99.90;;;;;;6362783;22;20174;-91
2022/02/22 10:25:25;;;;;;;4.90;1.50;;;0.10;99.90;;;;;;6366048;22;20162;-93
2022/02/22 10:27:59;;;;;;;3.53;1.20;;;0.10;99.90;;;;;;6359941;22;20188;-94
2022/02/22 10:30:39;;;;;;;1.90;1.30;;;0.10;99.90;;;;;;6349505;22;20169;-93
2022/02/22 10:33:17;;;;;;;4.70;1.67;;;0.10;99.90;;;;;;6349037;22;20166;-95
2022/02/22 10:35:52;;;;;;;3.30;1.57;;;0.10;99.90;;;;;;6348009;22;20656;-93
2022/02/22 10:38:26;;;;;;;1.90;1.30;;;0.10;99.90;;;;;;6346825;22;20584;-95
2022/02/22 10:41:01;;;;;;;4.03;1.70;;;0.20;99.90;;;;;;6347000;22;20176;-93
2022/02/22 10:43:33;;;;;;;6.07;1.50;;;0.20;99.90;;;;;;6345683;22;20220;-92
2022/02/22 10:46:08;;;;;;;2.53;1.27;;;0.20;99.90;;;;;;6345788;22;20168;-93
2022/02/22 10:48:41;;;;;;;2.13;1.20;;;0.30;99.90;;;;;;6345870;22;20195;-93
2022/02/22 10:51:16;;;;;;;3.33;1.37;;;0.20;99.90;;;;;;6322833;22;20289;-94
2022/02/22 10:53:49;;;;;;;3.23;1.00;;;0.20;99.90;;;;;;6317408;22;20172;-93
2022/02/22 10:56:22;;;;;;;2.30;1.23;;;0.20;99.90;;;;;;6315532;22;20204;-96
2022/02/22 10:58:54;;;;;;;4.33;1.27;;;0.10;99.90;;;;;;6315910;22;20864;-93
2022/02/22 11:01:29;;;;;;;4.37;1.60;;;0.10;99.90;;;;;;6313870;22;20177;-92
2022/02/22 11:04:01;;;;;;;4.60;1.20;;;0.20;99.90;;;;;;6316432;22;20184;-94
2022/02/22 11:06:37;;;;;;;7.97;1.67;;;0.10;99.90;;;;;;6314378;22;20163;-93
2022/02/22 11:09:10;;;;;;;2.53;1.37;;;0.10;99.90;;;;;;6312888;22;20177;-95
2022/02/22 11:11:51;;;;;;;7.23;1.33;;;0.20;99.90;;;;;;6314271;22;20570;-94
2022/02/22 11:14:27;;;;;;;2.30;1.30;;;0.10;99.90;;;;;;6313114;22;20177;-94
2022/02/22 11:17:02;;;;;;;2.07;1.20;;;0.10;99.90;;;;;;6319295;22;20192;-93
2022/02/22 11:19:38;;;;;;;4.30;1.20;;;0.10;99.90;;;;;;6333586;22;20170;-93
2022/02/22 11:22:23;;;;;;;4.43;1.20;;;0.10;99.90;;;;;;6333933;22;20155;-92
2022/02/22 11:24:57;;;;;;;4.60;1.40;;;0.00;99.90;;;;;;6334125;22;20185;-92
2022/02/22 11:27:30;;;;;;;3.17;1.27;;;0.00;99.90;;;;;;6333207;22;20172;-94
2022/02/22 11:30:06;;;;;;;4.43;1.23;;;0.10;99.90;;;;;;6334181;22;20166;-93
2022/02/22 11:32:43;;;;;;;5.70;1.27;;;0.10;99.90;;;;;;6315894;22;20257;-94
2022/02/22 11:35:19;;;;;;;3.17;1.70;;;0.10;99.90;;;;;;6314146;22;20272;-92
2022/02/22 11:37:52;;;;;;;6.17;1.73;;;0.10;99.90;;;;;;6313022;22;20177;-94
2022/02/22 11:40:30;;;;;;;2.90;1.33;;;0.10;99.90;;;;;;6313637;22;20181;-92
2022/02/22 11:43:07;;;;;;;4.17;1.27;;;0.00;99.90;;;;;;6313469;22;20177;-93
2022/02/22 11:45:39;;;;;;;3.40;1.50;;;0.00;99.90;;;;;;6313363;22;20227;-94
2022/02/22 11:48:21;;;;;;;3.60;1.33;;;0.00;99.90;;;;;;6310677;22;20178;-92
2022/02/22 11:50:57;;;;;;;7.90;1.67;;;0.00;99.90;;;;;;6312793;22;20182;-93
2022/02/22 11:53:31;;;;;;;3.87;1.40;;;0.00;99.90;;;;;;6313421;22;20182;-93
2022/02/22 11:56:03;;;;;;;3.17;1.03;;;0.00;99.90;;;;;;6313807;22;20340;-93
2022/02/22 11:58:36;;;;;;;3.93;1.50;;;0.00;99.90;;;;;;6312389;22;20200;-94
2022/02/22 12:01:17;;;;;;;4.60;1.10;;;0.00;99.90;;;;;;6313340;22;20182;-95
2022/02/22 12:03:52;;;;;;;1.90;1.10;;;-0.10;99.90;;;;;;6312331;22;20165;-93
2022/02/22 12:06:24;;;;;;;4.73;1.20;;;-0.10;99.90;;;;;;6312738;22;20174;-93
2022/02/22 12:09:07;;;;;;;3.20;1.33;;;-0.10;99.90;;;;;;6311909;22;20169;-93
2022/02/22 12:11:38;;;;;;;3.63;1.23;;;-0.10;99.90;;;;;;6312709;22;20195;-94
2022/02/22 12:14:14;;;;;;;7.53;1.40;;;0.00;99.90;;;;;;6313799;22;20211;-93
2022/02/22 12:16:48;;;;;;;4.17;1.73;;;0.00;99.90;;;;;;6311846;22;20300;-93
2022/02/22 12:19:22;;;;;;;4.17;1.00;;;0.00;99.90;;;;;;6319269;22;20167;-90
2022/02/22 12:21:55;;;;;;;3.27;1.03;;;0.00;99.90;;;;;;6333472;22;20184;-94
2022/02/22 12:24:28;;;;;;;2.23;1.27;;;0.10;99.90;;;;;;6334105;22;20173;-93
2022/02/22 12:26:59;;;;;;;2.27;1.20;;;0.10;99.90;;;;;;6333316;22;20166;-95
2022/02/22 12:29:33;;;;;;;3.20;1.30;;;0.10;99.90;;;;;;6334355;22;20188;-92
2022/02/22 12:32:06;;;;;;;2.27;1.10;;;0.10;99.90;;;;;;6338096;22;20201;-90
2022/02/22 12:34:37;;;;;;;4.67;1.20;;;0.00;99.90;;;;;;6366287;22;20154;-93
2022/02/22 12:37:09;;;;;;;4.83;1.60;;;0.00;99.90;;;;;;6355635;22;20185;-93
2022/02/22 12:39:43;;;;;;;9.43;1.47;;;0.10;99.90;;;;;;6364954;22;20177;-94
2022/02/22 12:42:17;;;;;;;3.03;1.20;;;0.00;99.90;;;;;;6364535;22;20192;-90
2022/02/22 12:44:59;;;;;;;4.63;1.50;;;0.10;99.90;;;;;;6349637;22;20177;-94
2022/02/22 12:47:33;;;;;;;3.27;1.20;;;0.00;99.90;;;;;;6363409;22;20171;-93
2022/02/22 12:50:05;;;;;;;2.30;1.40;;;0.00;99.90;;;;;;6365419;22;20164;-93
2022/02/22 12:52:35;;;;;;;2.80;1.30;;;0.00;99.90;;;;;;6364940;22;20179;-93
2022/02/22 12:55:24;;;;;;;5.90;1.40;;;0.00;99.90;;;;;;6364020;22;20161;-93
2022/02/22 12:58:08;;;;;;;4.10;1.27;;;0.00;99.90;;;;;;6350453;22;20267;-93
2022/02/22 13:00:40;;;;;;;1.93;1.03;;;-0.10;99.90;;;;;;6349665;22;20165;-93
2022/02/22 13:03:15;;;;;;;3.00;1.50;;;-0.10;99.90;;;;;;6348265;22;20172;-92
2022/02/22 13:05:48;;;;;;;6.43;1.30;;;0.00;99.90;;;;;;6346477;22;20225;-93
2022/02/22 13:08:20;;;;;;;3.37;1.37;;;-0.10;99.90;;;;;;6345028;22;20192;-92
2022/02/22 13:10:56;;;;;;;2.47;1.30;;;-0.10;99.90;;;;;;6345053;22;20226;-93
2022/02/22 13:13:28;;;;;;;2.60;1.37;;;-0.10;99.90;;;;;;6359148;22;20175;-93
2022/02/22 13:16:10;;;;;;;6.20;1.43;;;-0.20;99.90;;;;;;6357410;22;20181;-92
2022/02/22 13:18:51;;;;;;;2.40;1.37;;;-0.10;99.90;;;;;;6353512;22;20169;-93
2022/02/22 13:21:23;;;;;;;2.40;1.07;;;-0.10;99.90;;;;;;6348403;22;20176;-93
2022/02/22 13:23:58;;;;;;;5.27;1.47;;;-0.20;99.90;;;;;;6346567;22;20182;-94
2022/02/22 13:26:44;;;;;;;3.10;1.30;;;-0.20;99.90;;;;;;6318493;22;20180;-93
2022/02/22 13:29:31;;;;;;;3.13;1.30;;;-0.20;99.90;;;;;;6345816;22;20501;-93
2022/02/22 13:32:09;;;;;;;4.33;1.50;;;-0.20;99.90;;;;;;6345066;22;20271;-93
2022/02/22 13:34:46;;;;;;;1.50;1.13;;;-0.20;99.90;;;;;;6346038;22;20218;-92
2022/02/22 13:37:24;;;;;;;2.93;1.30;;;-0.10;99.90;;;;;;6345091;22;20288;-93